Wellington, New Zealand
Current Conditions -  °F | °C
As of 5:00 AM on Tuesday 23 Dec 2014 (Local Time) from NZWN Reporting Station
Scattered Clouds Scattered Clouds  
Wind Chill: 14°   Ceiling: Unl
Heat Index: 14°   Visibility: 6mi
Dew Point: 13°   Wind: 6mph
Humidity: 94%   Direction: 50°NE
Pressure: 30.24"   Gusts: NA
Location:  41.29°S, 174.78°E
Report Text: NZWN 221700Z AUTO 05005KT 9999 SCT012/// 14/13 Q1024 NOSIG
Loading
Personal Weather Stations






























Interactive Weather Map New forecast layout! Learn more

10-Day Weather Forecast

Advertisements
Track Severe Weather on mobile